sensor_id;sensor_type;location;lat;lon;timestamp;temperature;humidity
37646;DHT22;23489;49.600;6.138;2023-10-09T00:02:12;12.20;99.90
37646;DHT22;23489;49.600;6.138;2023-10-09T00:04:40;12.20;99.90
37646;DHT22;23489;49.600;6.138;2023-10-09T00:07:11;12.20;99.90
37646;DHT22;23489;49.600;6.138;2023-10-09T00:09:37;12.20;99.90
37646;DHT22;23489;49.600;6.138;2023-10-09T00:12:19;12.10;99.90
37646;DHT22;23489;49.600;6.138;2023-10-09T00:14:51;12.10;99.90
37646;DHT22;23489;49.600;6.138;2023-10-09T00:17:21;12.10;99.90
37646;DHT22;23489;49.600;6.138;2023-10-09T00:19:49;12.10;99.90
37646;DHT22;23489;49.600;6.138;2023-10-09T00:22:17;12.20;99.90
37646;DHT22;23489;49.600;6.138;2023-10-09T00:24:46;12.20;99.90
37646;DHT22;23489;49.600;6.138;2023-10-09T00:27:16;12.20;99.90
37646;DHT22;23489;49.600;6.138;2023-10-09T00:29:44;12.20;99.90
37646;DHT22;23489;49.600;6.138;2023-10-09T00:32:14;12.20;99.90
37646;DHT22;23489;49.600;6.138;2023-10-09T00:34:52;12.20;99.90
37646;DHT22;23489;49.600;6.138;2023-10-09T00:37:18;12.20;99.90
37646;DHT22;23489;49.600;6.138;2023-10-09T00:39:52;12.20;99.90
37646;DHT22;23489;49.600;6.138;2023-10-09T00:42:25;12.20;99.90
37646;DHT22;23489;49.600;6.138;2023-10-09T00:44:55;12.20;99.90
37646;DHT22;23489;49.600;6.138;2023-10-09T00:47:21;12.20;99.90
37646;DHT22;23489;49.600;6.138;2023-10-09T00:49:58;12.20;99.90
37646;DHT22;23489;49.600;6.138;2023-10-09T00:52:31;12.20;99.90
37646;DHT22;23489;49.600;6.138;2023-10-09T00:55:02;12.10;99.90
37646;DHT22;23489;49.600;6.138;2023-10-09T00:57:51;12.10;99.90
37646;DHT22;23489;49.600;6.138;2023-10-09T01:00:24;12.10;99.90
37646;DHT22;23489;49.600;6.138;2023-10-09T01:03:08;12.10;99.90
37646;DHT22;23489;49.600;6.138;2023-10-09T01:05:44;12.10;99.90
37646;DHT22;23489;49.600;6.138;2023-10-09T01:08:41;12.10;99.90
37646;DHT22;23489;49.600;6.138;2023-10-09T01:11:10;12.00;99.90
37646;DHT22;23489;49.600;6.138;2023-10-09T01:13:36;12.00;99.90
37646;DHT22;23489;49.600;6.138;2023-10-09T01:16:22;12.00;99.90
37646;DHT22;23489;49.600;6.138;2023-10-09T01:18:55;11.90;99.90
37646;DHT22;23489;49.600;6.138;2023-10-09T01:21:25;11.90;99.90
37646;DHT22;23489;49.600;6.138;2023-10-09T01:23:52;11.90;99.90
37646;DHT22;23489;49.600;6.138;2023-10-09T01:26:25;11.90;99.90
37646;DHT22;23489;49.600;6.138;2023-10-09T01:28:50;12.00;99.90
37646;DHT22;23489;49.600;6.138;2023-10-09T01:31:16;12.00;99.90
37646;DHT22;23489;49.600;6.138;2023-10-09T01:33:43;12.00;99.90
37646;DHT22;23489;49.600;6.138;2023-10-09T01:36:10;12.10;99.90
37646;DHT22;23489;49.600;6.138;2023-10-09T01:38:40;12.10;99.90
37646;DHT22;23489;49.600;6.138;2023-10-09T01:41:10;12.10;99.90
37646;DHT22;23489;49.600;6.138;2023-10-09T01:43:42;12.20;99.90
37646;DHT22;23489;49.600;6.138;2023-10-09T01:46:11;12.20;99.90
37646;DHT22;23489;49.600;6.138;2023-10-09T01:48:36;12.20;99.90
37646;DHT22;23489;49.600;6.138;2023-10-09T01:51:05;12.20;99.90
37646;DHT22;23489;49.600;6.138;2023-10-09T01:53:31;12.20;99.90
37646;DHT22;23489;49.600;6.138;2023-10-09T01:56:08;12.20;99.90
37646;DHT22;23489;49.600;6.138;2023-10-09T01:58:34;12.20;99.90
37646;DHT22;23489;49.600;6.138;2023-10-09T02:01:00;12.20;99.90
37646;DHT22;23489;49.600;6.138;2023-10-09T02:03:30;12.10;99.90
37646;DHT22;23489;49.600;6.138;2023-10-09T02:05:56;12.10;99.90
37646;DHT22;23489;49.600;6.138;2023-10-09T02:08:25;12.00;99.90
37646;DHT22;23489;49.600;6.138;2023-10-09T02:10:55;12.00;99.90
37646;DHT22;23489;49.600;6.138;2023-10-09T02:13:22;12.00;99.90
37646;DHT22;23489;49.600;6.138;2023-10-09T02:15:58;11.90;99.90
37646;DHT22;23489;49.600;6.138;2023-10-09T02:18:55;11.90;99.90
37646;DHT22;23489;49.600;6.138;2023-10-09T02:21:22;11.90;99.90
37646;DHT22;23489;49.600;6.138;2023-10-09T02:24:05;11.80;99.90
37646;DHT22;23489;49.600;6.138;2023-10-09T02:26:51;11.80;99.90
37646;DHT22;23489;49.600;6.138;2023-10-09T02:29:17;11.80;99.90
37646;DHT22;23489;49.600;6.138;2023-10-09T02:31:45;11.90;99.90
37646;DHT22;23489;49.600;6.138;2023-10-09T02:34:17;11.90;99.90
37646;DHT22;23489;49.600;6.138;2023-10-09T02:36:47;11.90;99.90
37646;DHT22;23489;49.600;6.138;2023-10-09T02:39:25;11.90;99.90
37646;DHT22;23489;49.600;6.138;2023-10-09T02:41:56;11.90;99.90
37646;DHT22;23489;49.600;6.138;2023-10-09T02:44:45;11.90;99.90
37646;DHT22;23489;49.600;6.138;2023-10-09T02:47:19;12.00;99.90
37646;DHT22;23489;49.600;6.138;2023-10-09T02:50:04;12.00;99.90
37646;DHT22;23489;49.600;6.138;2023-10-09T02:52:44;12.10;99.90
37646;DHT22;23489;49.600;6.138;2023-10-09T02:55:13;12.10;99.90
37646;DHT22;23489;49.600;6.138;2023-10-09T02:57:55;12.10;99.90
37646;DHT22;23489;49.600;6.138;2023-10-09T03:00:50;12.10;99.90
37646;DHT22;23489;49.600;6.138;2023-10-09T03:03:17;12.10;99.90
37646;DHT22;23489;49.600;6.138;2023-10-09T03:05:42;12.10;99.90
37646;DHT22;23489;49.600;6.138;2023-10-09T03:08:09;12.10;99.90
37646;DHT22;23489;49.600;6.138;2023-10-09T03:10:38;12.10;99.90
37646;DHT22;23489;49.600;6.138;2023-10-09T03:13:04;12.10;99.90
37646;DHT22;23489;49.600;6.138;2023-10-09T03:15:31;12.10;99.90
37646;DHT22;23489;49.600;6.138;2023-10-09T03:18:02;12.10;99.90
37646;DHT22;23489;49.600;6.138;2023-10-09T03:20:32;12.10;99.90
37646;DHT22;23489;49.600;6.138;2023-10-09T03:22:58;12.10;99.90
37646;DHT22;23489;49.600;6.138;2023-10-09T03:25:27;12.20;99.90
37646;DHT22;23489;49.600;6.138;2023-10-09T03:27:53;12.20;99.90
37646;DHT22;23489;49.600;6.138;2023-10-09T03:30:21;12.20;99.90
37646;DHT22;23489;49.600;6.138;2023-10-09T03:32:53;12.20;99.90
37646;DHT22;23489;49.600;6.138;2023-10-09T03:35:20;12.10;99.90
37646;DHT22;23489;49.600;6.138;2023-10-09T03:37:57;12.10;99.90
37646;DHT22;23489;49.600;6.138;2023-10-09T03:40:26;12.10;99.90
37646;DHT22;23489;49.600;6.138;2023-10-09T03:42:52;12.10;99.90
37646;DHT22;23489;49.600;6.138;2023-10-09T03:45:20;12.20;99.90
37646;DHT22;23489;49.600;6.138;2023-10-09T03:47:57;12.20;99.90
37646;DHT22;23489;49.600;6.138;2023-10-09T03:50:41;12.20;99.90
37646;DHT22;23489;49.600;6.138;2023-10-09T03:53:08;12.20;99.90
37646;DHT22;23489;49.600;6.138;2023-10-09T03:55:37;12.20;99.90
37646;DHT22;23489;49.600;6.138;2023-10-09T03:58:06;12.20;99.90
37646;DHT22;23489;49.600;6.138;2023-10-09T04:00:32;12.20;99.90
37646;DHT22;23489;49.600;6.138;2023-10-09T04:03:06;12.20;99.90
37646;DHT22;23489;49.600;6.138;2023-10-09T04:05:32;12.20;99.90
37646;DHT22;23489;49.600;6.138;2023-10-09T04:07:57;12.20;99.90
37646;DHT22;23489;49.600;6.138;2023-10-09T04:10:27;12.20;99.90
37646;DHT22;23489;49.600;6.138;2023-10-09T04:13:08;12.20;99.90
37646;DHT22;23489;49.600;6.138;2023-10-09T04:15:36;12.10;99.90
37646;DHT22;23489;49.600;6.138;2023-10-09T04:18:02;12.10;99.90
37646;DHT22;23489;49.600;6.138;2023-10-09T04:20:30;12.10;99.90
37646;DHT22;23489;49.600;6.138;2023-10-09T04:22:55;12.10;99.90
37646;DHT22;23489;49.600;6.138;2023-10-09T04:25:31;12.10;99.90
37646;DHT22;23489;49.600;6.138;2023-10-09T04:28:08;12.10;99.90
37646;DHT22;23489;49.600;6.138;2023-10-09T04:30:39;12.00;99.90
37646;DHT22;23489;49.600;6.138;2023-10-09T04:33:09;12.00;99.90
37646;DHT22;23489;49.600;6.138;2023-10-09T04:35:55;12.00;99.90
37646;DHT22;23489;49.600;6.138;2023-10-09T04:38:42;11.90;99.90
37646;DHT22;23489;49.600;6.138;2023-10-09T04:41:21;11.90;99.90
37646;DHT22;23489;49.600;6.138;2023-10-09T04:43:54;11.90;99.90
37646;DHT22;23489;49.600;6.138;2023-10-09T04:46:30;11.90;99.90
37646;DHT22;23489;49.600;6.138;2023-10-09T04:49:12;11.90;99.90
37646;DHT22;23489;49.600;6.138;2023-10-09T04:52:04;11.80;99.90
37646;DHT22;23489;49.600;6.138;2023-10-09T04:54:44;11.80;99.90
37646;DHT22;23489;49.600;6.138;2023-10-09T04:57:46;11.80;99.90
37646;DHT22;23489;49.600;6.138;2023-10-09T05:00:13;11.80;99.90
37646;DHT22;23489;49.600;6.138;2023-10-09T05:02:55;11.70;99.90
37646;DHT22;23489;49.600;6.138;2023-10-09T05:05:26;11.70;99.90
37646;DHT22;23489;49.600;6.138;2023-10-09T05:08:17;11.60;99.90
37646;DHT22;23489;49.600;6.138;2023-10-09T05:11:03;11.60;99.90
37646;DHT22;23489;49.600;6.138;2023-10-09T05:13:33;11.60;99.90
37646;DHT22;23489;49.600;6.138;2023-10-09T05:16:12;11.60;99.90
37646;DHT22;23489;49.600;6.138;2023-10-09T05:18:51;11.60;99.90
37646;DHT22;23489;49.600;6.138;2023-10-09T05:21:39;11.60;99.90
37646;DHT22;23489;49.600;6.138;2023-10-09T05:24:07;11.60;99.90
37646;DHT22;23489;49.600;6.138;2023-10-09T05:29:24;11.70;99.90
37646;DHT22;23489;49.600;6.138;2023-10-09T05:32:03;11.70;99.90
37646;DHT22;23489;49.600;6.138;2023-10-09T05:34:30;11.70;99.90
37646;DHT22;23489;49.600;6.138;2023-10-09T05:37:08;11.70;99.90
37646;DHT22;23489;49.600;6.138;2023-10-09T05:39:46;11.70;99.90
37646;DHT22;23489;49.600;6.138;2023-10-09T05:42:36;11.70;99.90
37646;DHT22;23489;49.600;6.138;2023-10-09T05:45:09;11.70;99.90
37646;DHT22;23489;49.600;6.138;2023-10-09T05:47:47;11.70;99.90
37646;DHT22;23489;49.600;6.138;2023-10-09T05:50:27;11.70;99.90
37646;DHT22;23489;49.600;6.138;2023-10-09T05:52:56;11.70;99.90
37646;DHT22;23489;49.600;6.138;2023-10-09T05:55:31;11.70;99.90
37646;DHT22;23489;49.600;6.138;2023-10-09T05:58:15;11.70;99.90
37646;DHT22;23489;49.600;6.138;2023-10-09T06:01:00;11.70;99.90
37646;DHT22;23489;49.600;6.138;2023-10-09T06:04:04;11.70;99.90
37646;DHT22;23489;49.600;6.138;2023-10-09T06:06:43;11.80;99.90
37646;DHT22;23489;49.600;6.138;2023-10-09T06:09:21;11.80;99.90
37646;DHT22;23489;49.600;6.138;2023-10-09T06:11:47;11.80;99.90
37646;DHT22;23489;49.600;6.138;2023-10-09T06:14:23;11.80;99.90
37646;DHT22;23489;49.600;6.138;2023-10-09T06:17:11;11.80;99.90
37646;DHT22;23489;49.600;6.138;2023-10-09T06:19:37;11.80;99.90
37646;DHT22;23489;49.600;6.138;2023-10-09T06:22:09;12.00;99.90
37646;DHT22;23489;49.600;6.138;2023-10-09T06:24:39;12.00;99.90
37646;DHT22;23489;49.600;6.138;2023-10-09T06:27:20;12.00;99.90
37646;DHT22;23489;49.600;6.138;2023-10-09T06:30:12;12.00;99.90
37646;DHT22;23489;49.600;6.138;2023-10-09T06:32:38;12.10;99.90
37646;DHT22;23489;49.600;6.138;2023-10-09T06:35:15;12.20;99.90
37646;DHT22;23489;49.600;6.138;2023-10-09T06:37:57;12.30;99.90
37646;DHT22;23489;49.600;6.138;2023-10-09T06:40:47;12.30;99.90
37646;DHT22;23489;49.600;6.138;2023-10-09T06:43:31;12.40;99.90
37646;DHT22;23489;49.600;6.138;2023-10-09T06:46:02;12.40;99.90
37646;DHT22;23489;49.600;6.138;2023-10-09T06:48:46;12.50;99.90
37646;DHT22;23489;49.600;6.138;2023-10-09T06:51:21;12.50;99.90
37646;DHT22;23489;49.600;6.138;2023-10-09T06:53:54;12.60;99.90
37646;DHT22;23489;49.600;6.138;2023-10-09T06:56:20;12.60;99.90
37646;DHT22;23489;49.600;6.138;2023-10-09T06:59:08;12.70;99.90
37646;DHT22;23489;49.600;6.138;2023-10-09T07:01:53;12.80;99.90
37646;DHT22;23489;49.600;6.138;2023-10-09T07:04:34;12.90;99.90
37646;DHT22;23489;49.600;6.138;2023-10-09T07:07:00;13.00;99.90
37646;DHT22;23489;49.600;6.138;2023-10-09T07:09:33;13.00;99.90
37646;DHT22;23489;49.600;6.138;2023-10-09T07:12:17;13.10;99.90
37646;DHT22;23489;49.600;6.138;2023-10-09T07:14:51;13.40;99.90
37646;DHT22;23489;49.600;6.138;2023-10-09T07:17:27;13.40;99.90
37646;DHT22;23489;49.600;6.138;2023-10-09T07:20:01;13.50;99.90
37646;DHT22;23489;49.600;6.138;2023-10-09T07:23:03;13.60;99.90
37646;DHT22;23489;49.600;6.138;2023-10-09T07:25:41;13.70;99.90
37646;DHT22;23489;49.600;6.138;2023-10-09T07:28:11;13.70;99.90
37646;DHT22;23489;49.600;6.138;2023-10-09T07:31:02;13.90;99.90
37646;DHT22;23489;49.600;6.138;2023-10-09T07:33:28;14.40;99.90
37646;DHT22;23489;49.600;6.138;2023-10-09T07:36:17;14.80;99.90
37646;DHT22;23489;49.600;6.138;2023-10-09T07:38:55;15.20;99.90
37646;DHT22;23489;49.600;6.138;2023-10-09T07:41:21;15.60;99.90
37646;DHT22;23489;49.600;6.138;2023-10-09T07:43:46;15.80;99.90
37646;DHT22;23489;49.600;6.138;2023-10-09T07:46:17;15.90;99.90
37646;DHT22;23489;49.600;6.138;2023-10-09T07:48:56;16.10;99.90
37646;DHT22;23489;49.600;6.138;2023-10-09T07:51:23;16.20;99.90
37646;DHT22;23489;49.600;6.138;2023-10-09T07:53:57;16.20;99.90
37646;DHT22;23489;49.600;6.138;2023-10-09T07:56:25;16.30;99.90
37646;DHT22;23489;49.600;6.138;2023-10-09T07:58:58;16.20;99.90
37646;DHT22;23489;49.600;6.138;2023-10-09T08:01:27;16.30;99.90
37646;DHT22;23489;49.600;6.138;2023-10-09T08:04:01;16.50;99.90
37646;DHT22;23489;49.600;6.138;2023-10-09T08:06:41;16.50;99.90
37646;DHT22;23489;49.600;6.138;2023-10-09T08:09:11;16.70;99.90
37646;DHT22;23489;49.600;6.138;2023-10-09T08:11:44;16.80;99.90
37646;DHT22;23489;49.600;6.138;2023-10-09T08:14:11;16.80;99.90
37646;DHT22;23489;49.600;6.138;2023-10-09T08:17:05;17.20;99.90
37646;DHT22;23489;49.600;6.138;2023-10-09T08:19:47;17.90;99.90
37646;DHT22;23489;49.600;6.138;2023-10-09T08:22:23;17.90;99.90
37646;DHT22;23489;49.600;6.138;2023-10-09T08:24:50;18.10;99.90
37646;DHT22;23489;49.600;6.138;2023-10-09T08:27:26;18.10;99.90
37646;DHT22;23489;49.600;6.138;2023-10-09T08:30:04;18.30;99.90
37646;DHT22;23489;49.600;6.138;2023-10-09T08:32:54;18.50;99.90
37646;DHT22;23489;49.600;6.138;2023-10-09T08:35:36;18.60;99.90
37646;DHT22;23489;49.600;6.138;2023-10-09T08:38:15;18.70;99.90
37646;DHT22;23489;49.600;6.138;2023-10-09T08:40:43;19.00;99.90
37646;DHT22;23489;49.600;6.138;2023-10-09T08:43:17;19.10;99.90
37646;DHT22;23489;49.600;6.138;2023-10-09T08:48:12;19.30;99.90
37646;DHT22;23489;49.600;6.138;2023-10-09T08:50:42;19.40;99.90
37646;DHT22;23489;49.600;6.138;2023-10-09T08:53:11;19.30;99.90
37646;DHT22;23489;49.600;6.138;2023-10-09T08:55:39;19.40;99.90
37646;DHT22;23489;49.600;6.138;2023-10-09T08:58:05;19.60;99.90
37646;DHT22;23489;49.600;6.138;2023-10-09T09:00:47;19.70;99.90
37646;DHT22;23489;49.600;6.138;2023-10-09T09:03:15;19.70;99.90
37646;DHT22;23489;49.600;6.138;2023-10-09T09:05:47;19.60;99.90
37646;DHT22;23489;49.600;6.138;2023-10-09T09:08:24;19.30;99.90
37646;DHT22;23489;49.600;6.138;2023-10-09T09:10:57;19.20;99.90
37646;DHT22;23489;49.600;6.138;2023-10-09T09:13:25;19.20;99.90
37646;DHT22;23489;49.600;6.138;2023-10-09T09:15:58;19.30;99.90
37646;DHT22;23489;49.600;6.138;2023-10-09T09:18:25;19.20;99.90
37646;DHT22;23489;49.600;6.138;2023-10-09T09:20:58;19.20;99.90
37646;DHT22;23489;49.600;6.138;2023-10-09T09:23:23;19.20;99.90
37646;DHT22;23489;49.600;6.138;2023-10-09T09:25:49;19.40;99.90
37646;DHT22;23489;49.600;6.138;2023-10-09T10:06:40;20.20;99.90
37646;DHT22;23489;49.600;6.138;2023-10-09T10:09:10;24.40;99.90
37646;DHT22;23489;49.600;6.138;2023-10-09T10:11:46;24.70;99.90
37646;DHT22;23489;49.600;6.138;2023-10-09T10:14:17;25.70;99.90
37646;DHT22;23489;49.600;6.138;2023-10-09T10:17:04;26.10;99.90
37646;DHT22;23489;49.600;6.138;2023-10-09T10:22:43;26.30;99.90
37646;DHT22;23489;49.600;6.138;2023-10-09T10:30:46;25.30;99.90
37646;DHT22;23489;49.600;6.138;2023-10-09T10:33:11;24.80;99.90
37646;DHT22;23489;49.600;6.138;2023-10-09T10:35:43;24.90;99.90
37646;DHT22;23489;49.600;6.138;2023-10-09T10:38:30;24.40;99.90
37646;DHT22;23489;49.600;6.138;2023-10-09T10:41:16;24.00;99.90
37646;DHT22;23489;49.600;6.138;2023-10-09T10:43:46;24.00;99.90
37646;DHT22;23489;49.600;6.138;2023-10-09T10:46:19;24.40;99.90
37646;DHT22;23489;49.600;6.138;2023-10-09T10:49:01;24.50;99.90
37646;DHT22;23489;49.600;6.138;2023-10-09T10:51:41;24.60;99.90
37646;DHT22;23489;49.600;6.138;2023-10-09T10:54:20;24.60;99.90
37646;DHT22;23489;49.600;6.138;2023-10-09T10:56:59;24.40;99.90
37646;DHT22;23489;49.600;6.138;2023-10-09T10:59:30;24.30;99.90
37646;DHT22;23489;49.600;6.138;2023-10-09T11:02:09;24.00;99.90
37646;DHT22;23489;49.600;6.138;2023-10-09T11:04:35;23.70;99.90
37646;DHT22;23489;49.600;6.138;2023-10-09T11:07:05;23.70;99.90
37646;DHT22;23489;49.600;6.138;2023-10-09T11:09:51;23.30;99.90
37646;DHT22;23489;49.600;6.138;2023-10-09T11:15:12;23.00;99.90
37646;DHT22;23489;49.600;6.138;2023-10-09T11:20:33;22.90;99.90
37646;DHT22;23489;49.600;6.138;2023-10-09T11:23:00;23.10;99.90
37646;DHT22;23489;49.600;6.138;2023-10-09T11:25:33;23.00;99.90
37646;DHT22;23489;49.600;6.138;2023-10-09T11:27:58;23.10;99.90
37646;DHT22;23489;49.600;6.138;2023-10-09T11:30:41;23.30;99.90
37646;DHT22;23489;49.600;6.138;2023-10-09T11:33:11;23.50;99.90
37646;DHT22;23489;49.600;6.138;2023-10-09T11:35:40;23.50;99.90
37646;DHT22;23489;49.600;6.138;2023-10-09T11:38:08;23.70;99.70
37646;DHT22;23489;49.600;6.138;2023-10-09T11:40:47;23.90;99.40
37646;DHT22;23489;49.600;6.138;2023-10-09T11:43:19;24.00;99.90
37646;DHT22;23489;49.600;6.138;2023-10-09T11:46:10;24.00;99.90
37646;DHT22;23489;49.600;6.138;2023-10-09T11:49:09;23.80;99.90
37646;DHT22;23489;49.600;6.138;2023-10-09T11:51:46;23.70;99.90
37646;DHT22;23489;49.600;6.138;2023-10-09T11:54:32;23.90;99.10
37646;DHT22;23489;49.600;6.138;2023-10-09T11:57:04;24.00;98.60
37646;DHT22;23489;49.600;6.138;2023-10-09T11:59:30;24.00;98.60
37646;DHT22;23489;49.600;6.138;2023-10-09T12:02:04;23.80;98.00
37646;DHT22;23489;49.600;6.138;2023-10-09T12:04:30;23.70;98.90
37646;DHT22;23489;49.600;6.138;2023-10-09T12:06:58;23.90;99.20
37646;DHT22;23489;49.600;6.138;2023-10-09T12:09:35;24.00;98.90
37646;DHT22;23489;49.600;6.138;2023-10-09T12:12:05;23.80;98.80
37646;DHT22;23489;49.600;6.138;2023-10-09T12:14:31;23.50;98.60
37646;DHT22;23489;49.600;6.138;2023-10-09T12:17:05;23.20;96.30
37646;DHT22;23489;49.600;6.138;2023-10-09T12:19:35;23.20;95.60
37646;DHT22;23489;49.600;6.138;2023-10-09T12:22:02;23.30;96.00
37646;DHT22;23489;49.600;6.138;2023-10-09T12:24:30;23.40;95.80
37646;DHT22;23489;49.600;6.138;2023-10-09T12:26:56;23.40;95.40
37646;DHT22;23489;49.600;6.138;2023-10-09T12:29:22;23.50;95.30
37646;DHT22;23489;49.600;6.138;2023-10-09T12:31:52;23.70;94.80
37646;DHT22;23489;49.600;6.138;2023-10-09T12:34:25;23.80;94.70
37646;DHT22;23489;49.600;6.138;2023-10-09T12:36:57;23.70;94.50
37646;DHT22;23489;49.600;6.138;2023-10-09T12:39:27;23.50;94.90
37646;DHT22;23489;49.600;6.138;2023-10-09T12:42:01;23.50;94.80
37646;DHT22;23489;49.600;6.138;2023-10-09T12:44:35;23.70;95.10
37646;DHT22;23489;49.600;6.138;2023-10-09T12:47:05;24.00;95.20
37646;DHT22;23489;49.600;6.138;2023-10-09T12:49:31;24.20;95.10
37646;DHT22;23489;49.600;6.138;2023-10-09T12:51:57;24.20;94.20
37646;DHT22;23489;49.600;6.138;2023-10-09T12:54:25;24.10;93.90
37646;DHT22;23489;49.600;6.138;2023-10-09T12:56:57;24.00;94.10
37646;DHT22;23489;49.600;6.138;2023-10-09T12:59:24;24.20;94.10
37646;DHT22;23489;49.600;6.138;2023-10-09T13:01:50;24.20;93.10
37646;DHT22;23489;49.600;6.138;2023-10-09T13:04:23;24.00;91.50
37646;DHT22;23489;49.600;6.138;2023-10-09T13:06:49;24.00;91.70
37646;DHT22;23489;49.600;6.138;2023-10-09T13:09:19;24.00;91.40
37646;DHT22;23489;49.600;6.138;2023-10-09T13:11:50;23.90;91.00
37646;DHT22;23489;49.600;6.138;2023-10-09T13:14:16;24.00;91.30
37646;DHT22;23489;49.600;6.138;2023-10-09T13:16:43;24.10;91.30
37646;DHT22;23489;49.600;6.138;2023-10-09T13:19:08;23.90;90.40
37646;DHT22;23489;49.600;6.138;2023-10-09T13:21:37;23.80;90.80
37646;DHT22;23489;49.600;6.138;2023-10-09T13:24:06;23.90;90.30
37646;DHT22;23489;49.600;6.138;2023-10-09T13:26:39;23.90;90.60
37646;DHT22;23489;49.600;6.138;2023-10-09T13:29:06;23.90;90.90
37646;DHT22;23489;49.600;6.138;2023-10-09T13:31:35;23.80;91.40
37646;DHT22;23489;49.600;6.138;2023-10-09T13:34:04;23.70;92.50
37646;DHT22;23489;49.600;6.138;2023-10-09T13:36:32;23.70;92.80
37646;DHT22;23489;49.600;6.138;2023-10-09T13:39:04;23.70;92.90
37646;DHT22;23489;49.600;6.138;2023-10-09T13:41:46;24.00;92.90
37646;DHT22;23489;49.600;6.138;2023-10-09T13:44:11;24.00;92.00
37646;DHT22;23489;49.600;6.138;2023-10-09T13:46:37;23.80;92.10
37646;DHT22;23489;49.600;6.138;2023-10-09T13:49:10;23.80;91.80
37646;DHT22;23489;49.600;6.138;2023-10-09T13:51:40;23.60;91.40
37646;DHT22;23489;49.600;6.138;2023-10-09T13:54:12;23.50;92.00
37646;DHT22;23489;49.600;6.138;2023-10-09T13:56:49;23.30;92.90
37646;DHT22;23489;49.600;6.138;2023-10-09T13:59:21;23.30;92.40
37646;DHT22;23489;49.600;6.138;2023-10-09T14:01:49;23.30;92.90
37646;DHT22;23489;49.600;6.138;2023-10-09T14:04:15;23.20;93.70
37646;DHT22;23489;49.600;6.138;2023-10-09T14:06:44;23.30;94.00
37646;DHT22;23489;49.600;6.138;2023-10-09T14:09:11;23.30;94.10
37646;DHT22;23489;49.600;6.138;2023-10-09T14:11:57;23.30;94.20
37646;DHT22;23489;49.600;6.138;2023-10-09T14:14:34;23.30;94.50
37646;DHT22;23489;49.600;6.138;2023-10-09T14:17:00;23.30;94.60
37646;DHT22;23489;49.600;6.138;2023-10-09T14:19:25;23.20;95.00
37646;DHT22;23489;49.600;6.138;2023-10-09T14:21:52;23.20;95.40
37646;DHT22;23489;49.600;6.138;2023-10-09T14:24:17;23.00;95.90
37646;DHT22;23489;49.600;6.138;2023-10-09T14:26:44;22.90;96.40
37646;DHT22;23489;49.600;6.138;2023-10-09T14:29:11;22.80;95.80
37646;DHT22;23489;49.600;6.138;2023-10-09T14:31:45;22.80;96.30
37646;DHT22;23489;49.600;6.138;2023-10-09T14:34:25;22.70;96.60
37646;DHT22;23489;49.600;6.138;2023-10-09T14:36:58;22.80;96.40
37646;DHT22;23489;49.600;6.138;2023-10-09T14:39:26;22.70;96.00
37646;DHT22;23489;49.600;6.138;2023-10-09T14:41:52;22.60;95.90
37646;DHT22;23489;49.600;6.138;2023-10-09T14:44:20;22.60;96.10
37646;DHT22;23489;49.600;6.138;2023-10-09T14:46:46;22.60;96.10
37646;DHT22;23489;49.600;6.138;2023-10-09T14:49:12;22.60;96.30
37646;DHT22;23489;49.600;6.138;2023-10-09T14:51:39;22.50;96.40
37646;DHT22;23489;49.600;6.138;2023-10-09T14:54:05;22.40;96.80
37646;DHT22;23489;49.600;6.138;2023-10-09T14:56:33;22.30;97.10
37646;DHT22;23489;49.600;6.138;2023-10-09T14:59:02;22.30;97.20
37646;DHT22;23489;49.600;6.138;2023-10-09T15:01:29;22.40;96.80
37646;DHT22;23489;49.600;6.138;2023-10-09T15:03:58;22.30;96.70
37646;DHT22;23489;49.600;6.138;2023-10-09T15:06:29;22.30;96.60
37646;DHT22;23489;49.600;6.138;2023-10-09T15:08:59;22.30;96.30
37646;DHT22;23489;49.600;6.138;2023-10-09T15:11:34;22.20;96.50
37646;DHT22;23489;49.600;6.138;2023-10-09T15:13:59;22.20;96.60
37646;DHT22;23489;49.600;6.138;2023-10-09T15:16:25;22.20;96.70
37646;DHT22;23489;49.600;6.138;2023-10-09T15:18:56;22.20;97.00
37646;DHT22;23489;49.600;6.138;2023-10-09T15:21:29;22.20;97.10
37646;DHT22;23489;49.600;6.138;2023-10-09T15:23:58;22.20;97.40
37646;DHT22;23489;49.600;6.138;2023-10-09T15:26:25;22.20;97.70
37646;DHT22;23489;49.600;6.138;2023-10-09T15:28:51;22.10;97.90
37646;DHT22;23489;49.600;6.138;2023-10-09T15:31:17;22.10;98.10
37646;DHT22;23489;49.600;6.138;2023-10-09T15:33:44;22.10;98.40
37646;DHT22;23489;49.600;6.138;2023-10-09T15:36:14;22.00;98.50
37646;DHT22;23489;49.600;6.138;2023-10-09T15:38:40;21.90;98.80
37646;DHT22;23489;49.600;6.138;2023-10-09T15:41:06;21.90;99.00
37646;DHT22;23489;49.600;6.138;2023-10-09T15:43:35;21.90;99.20
37646;DHT22;23489;49.600;6.138;2023-10-09T15:46:01;21.80;99.50
37646;DHT22;23489;49.600;6.138;2023-10-09T15:48:27;21.80;99.70
37646;DHT22;23489;49.600;6.138;2023-10-09T15:50:53;21.80;99.80
37646;DHT22;23489;49.600;6.138;2023-10-09T15:53:19;21.70;99.90
37646;DHT22;23489;49.600;6.138;2023-10-09T15:55:47;21.60;99.90
37646;DHT22;23489;49.600;6.138;2023-10-09T15:58:17;21.40;99.90
37646;DHT22;23489;49.600;6.138;2023-10-09T16:00:45;21.30;99.90
37646;DHT22;23489;49.600;6.138;2023-10-09T16:03:11;21.30;99.90
37646;DHT22;23489;49.600;6.138;2023-10-09T16:05:40;21.30;99.90
37646;DHT22;23489;49.600;6.138;2023-10-09T16:08:06;21.30;99.90
37646;DHT22;23489;49.600;6.138;2023-10-09T16:10:32;21.20;99.90
37646;DHT22;23489;49.600;6.138;2023-10-09T16:13:00;21.20;99.90
37646;DHT22;23489;49.600;6.138;2023-10-09T16:15:26;21.00;99.90
37646;DHT22;23489;49.600;6.138;2023-10-09T16:17:53;21.00;99.90
37646;DHT22;23489;49.600;6.138;2023-10-09T16:20:27;20.90;99.90
37646;DHT22;23489;49.600;6.138;2023-10-09T16:22:52;20.80;99.90
37646;DHT22;23489;49.600;6.138;2023-10-09T16:25:18;20.70;99.90
37646;DHT22;23489;49.600;6.138;2023-10-09T16:27:49;20.70;99.90
37646;DHT22;23489;49.600;6.138;2023-10-09T16:30:16;20.70;99.90
37646;DHT22;23489;49.600;6.138;2023-10-09T16:32:47;20.60;99.90
37646;DHT22;23489;49.600;6.138;2023-10-09T16:35:12;20.60;99.90
37646;DHT22;23489;49.600;6.138;2023-10-09T16:37:38;20.50;99.90
37646;DHT22;23489;49.600;6.138;2023-10-09T16:40:04;20.40;99.90
37646;DHT22;23489;49.600;6.138;2023-10-09T16:42:39;20.40;99.90
37646;DHT22;23489;49.600;6.138;2023-10-09T16:45:06;20.30;99.90
37646;DHT22;23489;49.600;6.138;2023-10-09T16:47:34;20.30;99.90
37646;DHT22;23489;49.600;6.138;2023-10-09T16:50:06;20.20;99.90
37646;DHT22;23489;49.600;6.138;2023-10-09T16:52:35;20.00;99.90
37646;DHT22;23489;49.600;6.138;2023-10-09T16:55:07;20.00;99.90
37646;DHT22;23489;49.600;6.138;2023-10-09T16:57:38;19.90;99.90
37646;DHT22;23489;49.600;6.138;2023-10-09T17:00:18;19.80;99.90
37646;DHT22;23489;49.600;6.138;2023-10-09T17:02:54;19.70;99.90